createdAt,value
2022-09-29T00:15:03.959Z,4.19
2022-09-29T00:24:40.872Z,4.19
2022-09-29T00:34:17.548Z,4.19
2022-09-29T00:43:53.839Z,4.19
2022-09-29T00:53:30.795Z,4.19
2022-09-29T01:03:07.825Z,4.19
2022-09-29T01:12:44.511Z,4.19
2022-09-29T01:22:20.973Z,4.19
2022-09-29T01:31:57.991Z,4.19
2022-09-29T01:41:34.553Z,4.19
2022-09-29T01:51:11.318Z,4.19
2022-09-29T02:00:48.274Z,4.19
2022-09-29T02:10:25.095Z,4.19
2022-09-29T02:20:01.939Z,4.19
2022-09-29T02:29:39.007Z,4.19
2022-09-29T02:39:15.948Z,4.19
2022-09-29T02:58:29.891Z,4.19
2022-09-29T03:17:44.502Z,4.19
2022-09-29T03:27:21.182Z,4.18
2022-09-29T03:36:58.618Z,4.18
2022-09-29T03:46:35.462Z,4.18
2022-09-29T03:56:12.209Z,4.19
2022-09-29T04:05:49.625Z,4.19
2022-09-29T04:15:26.487Z,4.18
2022-09-29T04:34:40.252Z,4.18
2022-09-29T04:44:17.337Z,4.18
2022-09-29T04:53:54.060Z,4.18
2022-09-29T05:03:31.061Z,4.18
2022-09-29T05:13:08.252Z,4.18
2022-09-29T05:22:45.654Z,4.18
2022-09-29T05:51:36.387Z,4.18
2022-09-29T06:01:13.837Z,4.18
2022-09-29T06:10:50.977Z,4.18
2022-09-29T06:20:28.373Z,4.18
2022-09-29T06:30:05.269Z,4.18
2022-09-29T06:39:42.549Z,4.18
2022-09-29T06:49:19.465Z,4.18
2022-09-29T06:58:56.102Z,4.18
2022-09-29T07:08:33.358Z,4.18
2022-09-29T07:18:10.867Z,4.18
2022-09-29T07:27:48.486Z,4.18
2022-09-29T07:47:03.571Z,4.18
2022-09-29T07:56:41.332Z,4.18
2022-09-29T08:06:18.708Z,4.18
2022-09-29T08:25:34.913Z,4.18
2022-09-29T08:35:13.431Z,4.18
2022-09-29T08:44:53.002Z,4.19
2022-09-29T08:54:38.285Z,4.19
2022-09-29T09:04:09.183Z,4.19
2022-09-29T09:23:24.949Z,4.19
2022-09-29T09:33:02.285Z,4.19
2022-09-29T09:42:39.729Z,4.19
2022-09-29T10:01:56.461Z,4.2
2022-09-29T10:21:10.691Z,4.2
2022-09-29T10:30:49.165Z,4.19
2022-09-29T10:40:28.396Z,4.2
2022-09-29T10:50:06.578Z,4.2
2022-09-29T10:59:44.620Z,4.21
2022-09-29T11:09:28.988Z,4.23
2022-09-29T11:19:17.880Z,4.27
2022-09-29T11:28:54.756Z,4.21
2022-09-29T11:38:47.563Z,4.21
2022-09-29T11:48:05.482Z,4.21
2022-09-29T11:57:37.288Z,4.2
2022-09-29T12:16:47.811Z,4.2
2022-09-29T12:26:23.752Z,4.2
2022-09-29T12:36:00.139Z,4.2
2022-09-29T12:45:38.681Z,4.21
2022-09-29T12:55:24.934Z,4.21
2022-09-29T13:05:05.602Z,4.22
2022-09-29T13:14:36.327Z,4.21
2022-09-29T13:33:44.534Z,4.2
2022-09-29T13:43:21.042Z,4.2
2022-09-29T13:52:57.801Z,4.2
2022-09-29T14:02:35.292Z,4.21
2022-09-29T14:12:13.031Z,4.21
2022-09-29T14:21:49.599Z,4.2
2022-09-29T14:31:27.275Z,4.21
2022-09-29T14:41:03.376Z,4.2
2022-09-29T14:50:39.870Z,4.2
2022-09-29T15:00:16.917Z,4.2
2022-09-29T15:09:53.412Z,4.2
2022-09-29T15:19:30.435Z,4.2
2022-09-29T15:29:07.413Z,4.2
2022-09-29T15:38:44.765Z,4.2
2022-09-29T15:48:21.945Z,4.2
2022-09-29T16:07:35.096Z,4.2
2022-09-29T16:46:01.116Z,4.2
2022-09-29T16:55:36.673Z,4.2
2022-09-29T17:05:12.358Z,4.2
2022-09-29T17:14:47.726Z,4.19
2022-09-29T17:24:23.735Z,4.19
2022-09-29T17:43:35.718Z,4.19
2022-09-29T17:53:11.959Z,4.19
2022-09-29T18:02:48.230Z,4.19
2022-09-29T18:12:24.446Z,4.19
2022-09-29T18:22:00.546Z,4.19
2022-09-29T18:31:37.210Z,4.19
2022-09-29T18:41:13.534Z,4.19
2022-09-29T18:50:50.178Z,4.19
2022-09-29T19:00:26.753Z,4.19
2022-09-29T19:10:03.702Z,4.19
2022-09-29T19:19:40.187Z,4.19
2022-09-29T19:29:17.426Z,4.19
2022-09-29T19:38:54.323Z,4.19
2022-09-29T19:48:31.442Z,4.19
2022-09-29T19:58:08.277Z,4.19
2022-09-29T20:07:45.073Z,4.19
2022-09-29T20:17:21.628Z,4.19
2022-09-29T20:26:58.869Z,4.19
2022-09-29T20:36:35.811Z,4.19
2022-09-29T20:46:12.625Z,4.19
2022-09-29T20:55:48.940Z,4.19
2022-09-29T21:05:25.209Z,4.19
2022-09-29T21:15:01.434Z,4.19
2022-09-29T21:24:38.117Z,4.19
2022-09-29T21:34:14.941Z,4.19
2022-09-29T21:53:28.460Z,4.18
2022-09-29T22:12:41.722Z,4.18
2022-09-29T22:22:18.866Z,4.18
2022-09-29T22:31:55.794Z,4.18
2022-09-29T22:51:08.531Z,4.18
2022-09-29T23:00:45.307Z,4.18
2022-09-29T23:10:22.079Z,4.18
2022-09-29T23:19:58.728Z,4.18
2022-09-29T23:29:35.092Z,4.17
2022-09-29T23:39:13.119Z,4.18
2022-09-29T23:48:49.609Z,4.18
2022-09-29T23:58:26.993Z,4.17
